Time;durP1;ratioP1;P1;durP2;ratioP2;P2;SDS_P1;SDS_P2;PMS_P1;PMS_P2;Temp;Humidity;BMP_temperature;BMP_pressure;BME280_temperature;BME280_humidity;BME280_pressure;Samples;Min_cycle;Max_cycle;Signal;HPM_P1;HPM_P2
2022/11/09 00:00:50;;;;;;;0.10;0.10;;;;;;;12.46;60.93;97617.88;8415709;28;20430;-73
2022/11/09 00:04:54;;;;;;;0.10;0.10;;;;;;;12.37;60.97;97614.97;8415067;28;20235;-74
2022/11/09 00:08:58;;;;;;;0.10;0.10;;;;;;;12.15;61.60;97608.41;8415075;28;20426;-73
2022/11/09 00:13:08;;;;;;;0.10;0.10;;;;;;;12.48;60.58;97612.59;8414797;28;20242;-73
2022/11/09 00:17:11;;;;;;;0.10;0.10;;;;;;;12.15;61.19;97604.94;8414682;28;20530;-73
2022/11/09 00:21:17;;;;;;;0.10;0.10;;;;;;;12.06;61.36;97590.75;8414692;28;20230;-73
2022/11/09 00:25:20;;;;;;;0.10;0.10;;;;;;;12.19;61.39;97593.50;8413945;28;20238;-73
2022/11/09 00:29:23;;;;;;;0.10;0.10;;;;;;;12.18;61.20;97582.25;8414363;28;20237;-74
2022/11/09 00:33:25;;;;;;;0.10;0.10;;;;;;;12.13;61.36;97577.34;8414466;28;20243;-73
2022/11/09 00:37:31;;;;;;;0.10;0.10;;;;;;;12.25;60.82;97574.97;8414118;28;20543;-73
2022/11/09 00:41:33;;;;;;;0.10;0.10;;;;;;;12.29;60.14;97579.88;8413981;28;20308;-73
2022/11/09 00:45:36;;;;;;;0.10;0.10;;;;;;;11.99;61.70;97592.84;8414117;28;20231;-74
2022/11/09 00:49:39;;;;;;;0.10;0.10;;;;;;;12.48;59.56;97589.22;8413629;28;20230;-73
2022/11/09 00:53:45;;;;;;;0.10;0.10;;;;;;;12.58;59.24;97602.50;8414040;28;20238;-73
2022/11/09 00:57:49;;;;;;;0.10;0.10;;;;;;;12.70;58.89;97604.41;8413852;28;20238;-73
2022/11/09 01:01:51;;;;;;;0.10;0.10;;;;;;;12.75;58.62;97604.13;8413441;28;20423;-73
2022/11/09 01:05:54;;;;;;;0.00;0.00;;;;;;;12.79;58.69;97597.81;8413275;28;20308;-73
2022/11/09 01:09:59;;;;;;;0.10;0.10;;;;;;;12.43;59.29;97591.25;8413307;28;20247;-73
2022/11/09 01:14:02;;;;;;;0.10;0.10;;;;;;;12.38;59.96;97588.91;8413299;28;20534;-73
2022/11/09 01:18:05;;;;;;;0.10;0.10;;;;;;;12.46;59.54;97578.91;8413346;28;20234;-73
2022/11/09 01:22:07;;;;;;;0.10;0.10;;;;;;;12.67;58.88;97583.78;8413431;28;20235;-73
2022/11/09 01:26:13;;;;;;;0.10;0.10;;;;;;;12.74;59.05;97576.44;8413083;28;20234;-73
2022/11/09 01:30:16;;;;;;;0.10;0.10;;;;;;;12.42;59.85;97585.22;8413139;28;20227;-73
2022/11/09 01:34:19;;;;;;;0.10;0.10;;;;;;;12.04;61.31;97564.06;8413223;28;20226;-73
2022/11/09 01:38:21;;;;;;;0.00;0.00;;;;;;;12.26;60.31;97564.50;8418448;28;20510;-73
2022/11/09 01:42:25;;;;;;;0.10;0.10;;;;;;;12.46;59.83;97578.09;8419629;28;20254;-75
2022/11/09 01:46:33;;;;;;;0.10;0.10;;;;;;;12.16;60.99;97576.31;8419484;28;20230;-73
2022/11/09 01:50:40;;;;;;;0.00;0.00;;;;;;;12.25;60.73;97569.78;8419134;28;20433;-73
2022/11/09 01:54:45;;;;;;;0.10;0.10;;;;;;;12.09;61.47;97564.63;8419176;28;20238;-73
2022/11/09 01:58:51;;;;;;;0.10;0.10;;;;;;;12.23;60.68;97563.84;8419294;28;20286;-73
2022/11/09 02:02:58;;;;;;;0.10;0.10;;;;;;;11.94;61.72;97563.75;8418482;28;20434;-73
2022/11/09 02:07:02;;;;;;;0.10;0.10;;;;;;;12.08;61.53;97558.59;8418664;28;20239;-73
2022/11/09 02:11:08;;;;;;;0.10;0.10;;;;;;;12.07;61.33;97556.06;8418345;28;20301;-73
2022/11/09 02:15:12;;;;;;;0.10;0.10;;;;;;;11.92;61.97;97561.22;8418598;28;20234;-73
2022/11/09 02:19:15;;;;;;;0.10;0.10;;;;;;;12.02;62.12;97568.50;8418683;28;20536;-73
2022/11/09 02:23:20;;;;;;;0.10;0.10;;;;;;;12.32;60.90;97568.50;8418444;28;20235;-73
2022/11/09 02:27:23;;;;;;;0.10;0.10;;;;;;;12.65;59.82;97578.69;8418422;28;20234;-73
2022/11/09 02:31:30;;;;;;;0.10;0.10;;;;;;;12.57;59.38;97580.91;8417672;28;20249;-74
2022/11/09 02:35:32;;;;;;;0.10;0.10;;;;;;;12.25;60.77;97577.56;8418206;28;20348;-73
2022/11/09 02:39:37;;;;;;;0.10;0.10;;;;;;;12.24;60.85;97584.53;8417804;28;20237;-73
2022/11/09 02:43:40;;;;;;;0.10;0.10;;;;;;;12.32;60.96;97578.91;8417737;27;20254;-73
2022/11/09 02:47:43;;;;;;;0.10;0.10;;;;;;;12.56;59.88;97575.78;8416828;28;20235;-73
2022/11/09 02:51:46;;;;;;;0.10;0.10;;;;;;;12.33;60.98;97562.38;8417463;28;20312;-73
2022/11/09 02:55:50;;;;;;;0.10;0.10;;;;;;;12.47;60.24;97572.81;8417040;28;20238;-73
2022/11/09 02:59:53;;;;;;;0.10;0.10;;;;;;;12.70;59.51;97576.66;8416665;28;20237;-74
2022/11/09 03:03:55;;;;;;;0.10;0.10;;;;;;;12.73;59.36;97583.41;8416686;28;20251;-73
2022/11/09 03:08:01;;;;;;;0.10;0.10;;;;;;;12.74;59.72;97579.06;8416567;28;20230;-73
2022/11/09 03:16:22;;;;;;;0.10;0.10;;;;;;;12.89;59.44;97589.38;8416669;28;20227;-73
2022/11/09 03:20:25;;;;;;;0.10;0.10;;;;;;;12.78;59.59;97589.19;8416405;28;20491;-73
2022/11/09 03:24:28;;;;;;;0.10;0.10;;;;;;;12.84;59.66;97600.97;8416573;28;20237;-74
2022/11/09 03:28:32;;;;;;;0.10;0.10;;;;;;;12.97;59.27;97611.50;8416242;28;20380;-73
2022/11/09 03:32:35;;;;;;;0.10;0.10;;;;;;;12.88;59.11;97605.91;8416028;28;20231;-73
2022/11/09 03:36:37;;;;;;;0.10;0.10;;;;;;;12.86;59.63;97615.53;8415963;28;20231;-74
2022/11/09 03:40:40;;;;;;;0.10;0.10;;;;;;;12.51;61.05;97615.84;8416022;28;20238;-73
2022/11/09 03:44:44;;;;;;;0.10;0.10;;;;;;;12.43;61.31;97601.63;8415851;28;20442;-73
2022/11/09 03:48:47;;;;;;;0.10;0.10;;;;;;;12.27;61.69;97599.91;8415876;28;20542;-73
2022/11/09 03:52:50;;;;;;;0.10;0.10;;;;;;;12.48;60.89;97597.84;8415679;28;20434;-73
2022/11/09 03:56:52;;;;;;;0.10;0.10;;;;;;;12.43;61.22;97592.09;8414877;28;20538;-74
2022/11/09 04:00:56;;;;;;;0.10;0.10;;;;;;;12.71;60.00;97604.28;8414121;28;20284;-73
2022/11/09 04:04:59;;;;;;;0.10;0.10;;;;;;;12.88;59.54;97605.06;8414888;28;20234;-73
2022/11/09 04:09:02;;;;;;;0.10;0.10;;;;;;;12.65;60.28;97609.84;8414794;28;20257;-73
2022/11/09 04:13:04;;;;;;;0.10;0.10;;;;;;;12.68;60.54;97616.66;8414923;28;20234;-73
2022/11/09 04:17:09;;;;;;;0.10;0.10;;;;;;;12.89;60.06;97617.97;8414979;28;20234;-73
2022/11/09 04:21:11;;;;;;;0.10;0.10;;;;;;;12.97;59.65;97620.13;8414651;28;20624;-73
2022/11/09 04:25:15;;;;;;;0.10;0.10;;;;;;;12.82;60.52;97606.25;8414743;28;20250;-73
2022/11/09 04:29:17;;;;;;;0.10;0.10;;;;;;;12.93;59.80;97616.03;8414322;28;20530;-73
2022/11/09 04:33:21;;;;;;;0.10;0.10;;;;;;;12.95;59.31;97618.53;8414335;28;20230;-73
2022/11/09 04:37:24;;;;;;;0.10;0.10;;;;;;;12.75;60.26;97622.31;8414348;28;20223;-73
2022/11/09 04:41:27;;;;;;;0.10;0.10;;;;;;;12.90;60.07;97614.44;8414042;28;20235;-73
2022/11/09 04:45:30;;;;;;;0.10;0.10;;;;;;;12.93;59.90;97613.44;8414357;28;20235;-73
2022/11/09 04:49:34;;;;;;;0.10;0.10;;;;;;;13.10;59.66;97628.84;8414001;28;20227;-73
2022/11/09 04:53:37;;;;;;;0.10;0.10;;;;;;;13.09;59.56;97632.38;8413848;28;20258;-73
2022/11/09 04:57:40;;;;;;;0.10;0.10;;;;;;;13.14;59.45;97639.09;8414248;28;20235;-73
2022/11/09 05:01:43;;;;;;;0.10;0.10;;;;;;;13.21;59.49;97641.22;8413826;28;20242;-73
2022/11/09 05:05:47;;;;;;;0.10;0.10;;;;;;;13.19;59.18;97639.63;8413855;28;20257;-74
2022/11/09 05:09:50;;;;;;;0.10;0.10;;;;;;;13.20;59.25;97641.31;8413468;28;20254;-73
2022/11/09 05:13:53;;;;;;;0.10;0.10;;;;;;;13.26;59.41;97646.97;8413015;28;20231;-73
2022/11/09 05:17:56;;;;;;;0.10;0.10;;;;;;;13.21;59.51;97649.03;8412891;28;20242;-73
2022/11/09 05:23:57;;;;;;;0.10;0.10;;;;;;;13.24;58.63;97664.41;8412552;28;20242;-74
2022/11/09 05:26:23;;;;;;;0.00;0.00;;;;;;;13.33;58.77;97650.06;8412593;28;20230;-73
2022/11/09 05:30:26;;;;;;;0.10;0.10;;;;;;;13.28;59.62;97671.09;8412597;28;20226;-73
2022/11/09 05:34:29;;;;;;;0.10;0.10;;;;;;;13.29;59.59;97691.00;8412745;28;20564;-73
2022/11/09 05:38:33;;;;;;;0.10;0.10;;;;;;;13.38;60.21;97694.81;8412472;28;20450;-73
2022/11/09 05:42:38;;;;;;;0.10;0.10;;;;;;;13.33;61.21;97694.28;8412371;28;20238;-73
2022/11/09 05:46:41;;;;;;;0.00;0.00;;;;;;;13.25;62.38;97699.06;8412158;28;20230;-74
2022/11/09 05:50:44;;;;;;;0.10;0.10;;;;;;;13.25;62.32;97699.06;8412048;28;20234;-73
2022/11/09 05:54:48;;;;;;;0.10;0.10;;;;;;;13.30;62.10;97687.47;8411977;28;20436;-73
2022/11/09 05:58:51;;;;;;;0.10;0.10;;;;;;;13.20;62.54;97682.91;8412187;28;20238;-73
2022/11/09 06:02:53;;;;;;;0.00;0.00;;;;;;;12.73;64.83;97673.53;8412348;28;20226;-74
2022/11/09 06:06:57;;;;;;;0.10;0.10;;;;;;;12.77;64.62;97685.41;8412363;28;20296;-73
2022/11/09 06:11:02;;;;;;;0.00;0.00;;;;;;;12.44;66.21;97678.63;8411210;28;20242;-74
2022/11/09 06:15:06;;;;;;;0.00;0.00;;;;;;;12.42;66.62;97672.69;8412002;28;20235;-72
2022/11/09 06:19:09;;;;;;;0.10;0.10;;;;;;;12.24;66.91;97680.59;8411894;28;20230;-73
2022/11/09 06:23:12;;;;;;;0.10;0.10;;;;;;;12.15;67.48;97680.22;8413223;28;20256;-73
2022/11/09 06:27:16;;;;;;;0.10;0.10;;;;;;;12.06;67.90;97691.97;8418298;28;20227;-74
2022/11/09 06:31:19;;;;;;;0.10;0.10;;;;;;;11.74;70.22;97694.50;8418036;28;20230;-73
2022/11/09 06:35:22;;;;;;;0.00;0.00;;;;;;;12.13;68.41;97688.13;8417768;28;20534;-72
2022/11/09 06:39:25;;;;;;;0.10;0.10;;;;;;;11.97;68.93;97690.69;8417597;28;20223;-73
2022/11/09 06:43:30;;;;;;;0.10;0.10;;;;;;;11.97;69.63;97689.88;8417392;28;20235;-73
2022/11/09 06:47:32;;;;;;;0.10;0.10;;;;;;;11.87;70.10;97695.53;8417177;28;20234;-72
2022/11/09 06:51:35;;;;;;;0.10;0.10;;;;;;;11.67;70.40;97700.94;8417132;28;20241;-72
2022/11/09 06:55:38;;;;;;;0.10;0.10;;;;;;;11.88;70.10;97704.13;8417333;28;20238;-73
2022/11/09 06:59:46;;;;;;;0.10;0.10;;;;;;;11.67;70.95;97719.94;8417234;28;20375;-72
2022/11/09 07:03:49;;;;;;;0.10;0.10;;;;;;;12.02;69.17;97713.84;8416724;28;20277;-72
2022/11/09 07:07:51;;;;;;;0.10;0.10;;;;;;;11.85;70.59;97712.09;8416875;28;20460;-72
2022/11/09 07:11:54;;;;;;;0.10;0.10;;;;;;;11.84;70.97;97713.00;8415979;28;20292;-73
2022/11/09 07:15:58;;;;;;;0.10;0.10;;;;;;;11.71;71.37;97718.03;8416255;28;20227;-73
2022/11/09 07:20:01;;;;;;;0.10;0.10;;;;;;;11.61;71.29;97716.81;8416180;28;20226;-73
2022/11/09 07:24:04;;;;;;;0.10;0.10;;;;;;;11.81;70.63;97718.38;8415544;28;20230;-72
2022/11/09 07:28:08;;;;;;;0.10;0.10;;;;;;;11.73;71.64;97723.97;8415066;28;20249;-72
2022/11/09 07:32:12;;;;;;;0.10;0.10;;;;;;;11.96;70.41;97740.94;8415393;28;20541;-72
2022/11/09 07:36:15;;;;;;;0.10;0.10;;;;;;;11.60;71.30;97741.09;8415037;28;20230;-72
2022/11/09 07:40:23;;;;;;;0.10;0.10;;;;;;;11.63;72.04;97736.59;8414535;28;20406;-72
2022/11/09 07:44:25;;;;;;;0.10;0.10;;;;;;;11.65;72.21;97734.75;8414568;28;20278;-72
2022/11/09 07:48:30;;;;;;;0.10;0.10;;;;;;;12.13;70.17;97734.84;8414395;28;20510;-72
2022/11/09 07:52:32;;;;;;;0.10;0.10;;;;;;;12.37;68.55;97742.22;8414293;28;20237;-72
2022/11/09 07:56:35;;;;;;;0.10;0.10;;;;;;;12.60;68.10;97739.16;8413948;28;20237;-72
2022/11/09 08:00:39;;;;;;;0.10;0.10;;;;;;;12.37;68.72;97737.84;8413988;28;20246;-73
2022/11/09 08:04:44;;;;;;;0.10;0.10;;;;;;;12.15;69.29;97747.72;8414184;28;20242;-73
2022/11/09 08:08:48;;;;;;;0.10;0.10;;;;;;;12.31;68.86;97739.03;8414752;28;20238;-72
2022/11/09 08:12:55;;;;;;;0.10;0.10;;;;;;;12.17;69.76;97746.75;8414540;28;20368;-72
2022/11/09 08:16:57;;;;;;;0.10;0.10;;;;;;;11.81;71.45;97742.56;8414331;28;20454;-72
2022/11/09 08:21:03;;;;;;;0.10;0.10;;;;;;;11.77;71.82;97735.03;8413970;28;20284;-73
2022/11/09 08:25:06;;;;;;;0.10;0.10;;;;;;;12.04;70.46;97759.53;8413400;28;20234;-73
2022/11/09 08:29:09;;;;;;;0.10;0.10;;;;;;;12.19;69.82;97764.84;8413505;28;20234;-72
2022/11/09 08:33:12;;;;;;;0.10;0.10;;;;;;;12.17;70.24;97756.28;8413688;28;20273;-73
2022/11/09 08:37:17;;;;;;;0.10;0.10;;;;;;;12.39;69.44;97767.16;8413221;28;20234;-72
2022/11/09 08:41:20;;;;;;;0.10;0.10;;;;;;;12.30;69.71;97767.69;8412964;28;20235;-72
2022/11/09 08:45:22;;;;;;;0.10;0.10;;;;;;;12.31;70.22;97769.34;8412398;28;20231;-72
2022/11/09 08:49:25;;;;;;;0.10;0.10;;;;;;;12.88;72.85;97774.81;8413076;28;20230;-73
2022/11/09 08:53:30;;;;;;;0.10;0.10;;;;;;;12.27;71.00;97783.41;8413204;28;20226;-72
2022/11/09 08:57:32;;;;;;;0.10;0.10;;;;;;;12.70;69.31;97778.47;8413330;28;20230;-72
2022/11/09 09:01:35;;;;;;;0.10;0.10;;;;;;;12.90;69.04;97779.94;8413232;28;20237;-72
2022/11/09 09:05:38;;;;;;;0.40;0.20;;;;;;;12.99;68.12;97789.81;8412898;28;20238;-72
2022/11/09 09:09:42;;;;;;;0.10;0.10;;;;;;;12.98;68.33;97788.13;8413193;28;20252;-72
2022/11/09 09:13:45;;;;;;;0.10;0.10;;;;;;;13.00;68.38;97793.25;8413134;28;20242;-73
2022/11/09 09:17:48;;;;;;;0.10;0.10;;;;;;;13.02;68.06;97804.38;8413127;28;20241;-72
2022/11/09 09:21:51;;;;;;;0.10;0.10;;;;;;;12.86;69.21;97796.63;8412899;28;20234;-72
2022/11/09 09:25:57;;;;;;;0.10;0.10;;;;;;;12.56;71.28;97781.81;8412376;28;20227;-73
2022/11/09 09:30:00;;;;;;;0.10;0.10;;;;;;;13.01;69.94;97782.75;8412620;28;20238;-73
2022/11/09 09:34:03;;;;;;;0.10;0.10;;;;;;;12.70;71.17;97794.91;8412748;28;20272;-73
2022/11/09 09:38:06;;;;;;;0.10;0.10;;;;;;;12.82;70.86;97789.94;8412601;28;20233;-72
2022/11/09 09:42:14;;;;;;;0.10;0.10;;;;;;;12.70;71.47;97774.09;8412351;28;20230;-73
2022/11/09 09:46:20;;;;;;;0.10;0.10;;;;;;;12.99;71.21;97783.78;8412712;28;20235;-72
2022/11/09 09:50:25;;;;;;;0.10;0.10;;;;;;;12.68;72.23;97778.56;8412624;28;20399;-72
2022/11/09 09:54:31;;;;;;;0.10;0.10;;;;;;;12.94;71.43;97778.00;8412582;28;20238;-73
2022/11/09 09:58:40;;;;;;;0.10;0.10;;;;;;;12.30;74.80;97772.88;8414635;28;20522;-73
2022/11/09 10:02:43;;;;;;;0.10;0.10;;;;;;;12.32;74.99;97774.47;8418469;28;20239;-72
2022/11/09 10:06:58;;;;;;;0.10;0.10;;;;;;;12.58;74.00;97768.75;8418650;28;20253;-72
2022/11/09 10:11:11;;;;;;;0.10;0.10;;;;;;;12.65;74.22;97754.50;8417950;28;20597;-72
2022/11/09 10:15:20;;;;;;;0.10;0.10;;;;;;;13.04;75.81;97759.22;8418256;28;20579;-75
2022/11/09 10:19:31;;;;;;;0.10;0.10;;;;;;;12.62;73.94;97759.84;8418305;28;20529;-73
2022/11/09 10:23:41;;;;;;;0.10;0.10;;;;;;;12.42;75.47;97755.78;8417703;28;20242;-73
2022/11/09 10:27:48;;;;;;;0.10;0.10;;;;;;;13.03;74.13;97757.50;8418350;28;20239;-72
2022/11/09 10:31:53;;;;;;;0.10;0.10;;;;;;;13.10;72.86;97748.44;8417712;28;20238;-72
2022/11/09 10:36:02;;;;;;;0.10;0.10;;;;;;;13.44;72.20;97746.50;8417066;28;20481;-72
2022/11/09 10:40:17;;;;;;;0.10;0.10;;;;;;;13.84;71.20;97743.25;8417461;28;20258;-72
2022/11/09 10:44:20;;;;;;;0.10;0.10;;;;;;;13.81;71.63;97740.84;8416980;28;20231;-72
2022/11/09 10:48:31;;;;;;;0.10;0.10;;;;;;;14.08;70.47;97762.56;8417541;28;20230;-72
2022/11/09 10:52:39;;;;;;;0.10;0.10;;;;;;;14.30;70.66;97745.63;8417047;28;20234;-72
2022/11/09 10:56:50;;;;;;;0.10;0.10;;;;;;;14.38;71.73;97732.94;8416964;28;20234;-72
2022/11/09 11:01:13;;;;;;;0.10;0.10;;;;;;;14.98;69.34;97723.91;8415817;28;20238;-72
2022/11/09 11:05:34;;;;;;;0.10;0.10;;;;;;;15.13;67.61;97723.78;8416332;28;20250;-72
2022/11/09 11:09:37;;;;;;;0.10;0.10;;;;;;;15.52;67.79;97725.50;8415715;28;20453;-72
2022/11/09 11:13:40;;;;;;;0.10;0.10;;;;;;;15.93;67.70;97719.19;8415570;28;20235;-73
2022/11/09 11:17:43;;;;;;;0.00;0.00;;;;;;;16.15;67.19;97700.25;8415601;28;20254;-73
2022/11/09 11:21:47;;;;;;;0.00;0.00;;;;;;;15.99;67.22;97697.03;8416053;28;20234;-73
2022/11/09 11:26:09;;;;;;;0.10;0.10;;;;;;;15.93;66.73;97693.09;8415738;28;20296;-73
2022/11/09 11:30:14;;;;;;;0.00;0.00;;;;;;;15.72;68.75;97705.84;8415379;28;20234;-73
2022/11/09 11:34:17;;;;;;;0.00;0.00;;;;;;;15.82;68.46;97699.09;8415447;28;20388;-73
2022/11/09 11:38:45;;;;;;;0.10;0.10;;;;;;;15.99;67.41;97694.44;8415041;28;20512;-73
2022/11/09 11:43:11;;;;;;;0.10;0.10;;;;;;;16.19;67.30;97696.47;8414781;28;20288;-73
2022/11/09 11:47:19;;;;;;;0.00;0.00;;;;;;;16.08;66.70;97685.94;8414592;28;20314;-73
2022/11/09 11:51:30;;;;;;;0.00;0.00;;;;;;;16.04;67.60;97684.50;8414800;28;20226;-73
2022/11/09 11:55:48;;;;;;;0.00;0.00;;;;;;;16.16;66.99;97680.19;8414585;28;20427;-73
2022/11/09 12:00:10;;;;;;;0.00;0.00;;;;;;;16.31;66.23;97673.03;8414101;28;20238;-73
2022/11/09 12:04:25;;;;;;;0.10;0.10;;;;;;;16.58;65.74;97673.63;8413702;28;20495;-73
2022/11/09 12:08:44;;;;;;;0.00;0.00;;;;;;;16.62;64.43;97666.41;8413539;28;20284;-73
2022/11/09 12:12:56;;;;;;;0.00;0.00;;;;;;;16.55;65.42;97658.16;8413696;28;20239;-73
2022/11/09 12:17:06;;;;;;;0.00;0.00;;;;;;;16.43;65.14;97661.69;8413248;28;20231;-73
2022/11/09 12:21:16;;;;;;;0.07;0.07;;;;;;;16.24;65.31;97654.34;8412384;28;20519;-73
2022/11/09 12:25:23;;;;;;;0.10;0.10;;;;;;;16.49;65.09;97652.56;8413495;28;20241;-73
2022/11/09 12:29:31;;;;;;;0.10;0.10;;;;;;;16.91;63.67;97655.59;8412995;28;20230;-73
2022/11/09 12:33:41;;;;;;;0.00;0.00;;;;;;;17.05;63.24;97655.38;8413075;28;20227;-73
2022/11/09 12:37:49;;;;;;;0.00;0.00;;;;;;;17.18;62.19;97653.47;8412863;28;20235;-73
2022/11/09 12:41:54;;;;;;;0.00;0.00;;;;;;;16.94;63.27;97645.69;8403891;28;20242;-73
2022/11/09 12:45:59;;;;;;;0.00;0.00;;;;;;;16.75;63.62;97658.47;8412305;28;20239;-75
2022/11/09 12:50:02;;;;;;;0.00;0.00;;;;;;;16.68;64.54;97654.63;8412459;28;20235;-74
2022/11/09 12:54:10;;;;;;;0.00;0.00;;;;;;;16.61;64.09;97656.88;8412559;28;20242;-75
2022/11/09 12:58:22;;;;;;;0.00;0.00;;;;;;;16.67;64.83;97659.03;8412682;28;20231;-74
2022/11/09 13:02:31;;;;;;;0.00;0.00;;;;;;;16.58;64.08;97655.34;8412508;28;20479;-75
2022/11/09 13:06:35;;;;;;;0.00;0.00;;;;;;;16.46;64.27;97655.41;8412009;28;20288;-73
2022/11/09 13:10:39;;;;;;;0.00;0.00;;;;;;;16.47;64.25;97654.44;8412077;28;20337;-74
2022/11/09 13:14:43;;;;;;;0.00;0.00;;;;;;;16.40;65.13;97649.66;8412497;28;20231;-74
2022/11/09 13:18:52;;;;;;;0.10;0.10;;;;;;;16.41;64.65;97645.25;8412412;28;20284;-74
2022/11/09 13:23:00;;;;;;;0.00;0.00;;;;;;;16.41;65.00;97651.34;8411630;28;20249;-74
2022/11/09 13:27:03;;;;;;;0.00;0.00;;;;;;;16.41;65.02;97655.72;8412245;28;20235;-75
2022/11/09 13:31:09;;;;;;;0.00;0.00;;;;;;;16.45;65.15;97649.34;8411725;28;20226;-75
2022/11/09 13:35:45;;;;;;;0.00;0.00;;;;;;;16.56;64.86;97646.78;8418949;28;20230;-75
2022/11/09 13:39:49;;;;;;;0.00;0.00;;;;;;;16.38;65.46;97653.34;8418715;28;20514;-74
2022/11/09 13:44:07;;;;;;;0.10;0.10;;;;;;;16.45;65.32;97658.94;8418514;28;20530;-74
2022/11/09 13:48:24;;;;;;;0.00;0.00;;;;;;;16.39;65.86;97665.44;8417654;28;20235;-74
2022/11/09 13:52:48;;;;;;;0.07;0.07;;;;;;;16.34;65.71;97665.78;8417826;28;20245;-73
2022/11/09 13:56:53;;;;;;;0.10;0.10;;;;;;;16.28;66.11;97683.69;8418564;28;20238;-74
2022/11/09 14:00:56;;;;;;;0.00;0.00;;;;;;;16.27;66.67;97675.00;8417579;28;20245;-73
2022/11/09 14:05:00;;;;;;;0.00;0.00;;;;;;;16.25;67.15;97676.91;8418430;28;20436;-74
2022/11/09 14:09:03;;;;;;;0.00;0.00;;;;;;;16.17;67.49;97680.06;8418332;28;20256;-74
2022/11/09 14:13:33;;;;;;;0.00;0.00;;;;;;;16.20;66.69;97679.00;8417435;28;20419;-73
2022/11/09 14:17:39;;;;;;;0.00;0.00;;;;;;;16.17;67.53;97682.69;8417279;28;20510;-72
2022/11/09 14:21:45;;;;;;;0.00;0.00;;;;;;;16.16;67.19;97688.88;8417269;28;20302;-74
2022/11/09 14:25:48;;;;;;;0.00;0.00;;;;;;;16.08;68.37;97687.72;8417193;28;20292;-73
2022/11/09 14:29:54;;;;;;;0.00;0.00;;;;;;;16.10;68.33;97691.06;8417124;28;20548;-73
2022/11/09 14:34:01;;;;;;;0.00;0.00;;;;;;;16.10;68.04;97686.66;8416317;28;20249;-73
2022/11/09 14:38:21;;;;;;;0.10;0.10;;;;;;;16.10;67.41;97696.28;8416820;28;20234;-73
2022/11/09 14:42:24;;;;;;;0.10;0.10;;;;;;;16.09;67.89;97690.25;8416741;28;20227;-73
2022/11/09 14:46:31;;;;;;;0.00;0.00;;;;;;;16.09;68.15;97699.84;8415633;28;20256;-73
2022/11/09 14:50:37;;;;;;;0.00;0.00;;;;;;;16.05;68.53;97701.00;8416599;28;20250;-73
2022/11/09 14:54:40;;;;;;;0.00;0.00;;;;;;;16.01;68.70;97700.38;8416364;28;20246;-73
2022/11/09 14:58:48;;;;;;;0.10;0.10;;;;;;;15.94;68.54;97702.59;8416515;28;20364;-73
2022/11/09 15:02:53;;;;;;;0.00;0.00;;;;;;;15.97;68.57;97697.19;8416130;28;20231;-73
2022/11/09 15:06:59;;;;;;;0.00;0.00;;;;;;;15.95;69.00;97714.69;8415454;28;20231;-74
2022/11/09 15:11:02;;;;;;;0.10;0.10;;;;;;;15.93;69.26;97713.97;8416110;28;20245;-73
2022/11/09 15:15:07;;;;;;;0.00;0.00;;;;;;;15.94;70.11;97720.06;8414881;28;20254;-72
2022/11/09 15:19:23;;;;;;;0.10;0.10;;;;;;;15.93;69.73;97710.53;8415457;28;20382;-73
2022/11/09 15:23:38;;;;;;;0.00;0.00;;;;;;;15.84;70.31;97717.25;8414782;28;20314;-71
2022/11/09 15:27:41;;;;;;;0.10;0.10;;;;;;;15.85;70.00;97724.13;8415345;28;20433;-72
2022/11/09 15:31:57;;;;;;;0.00;0.00;;;;;;;15.82;70.39;97729.56;8414953;28;20599;-72
2022/11/09 15:36:05;;;;;;;0.10;0.10;;;;;;;15.76;70.87;97722.16;8414297;28;20322;-72
2022/11/09 15:40:10;;;;;;;0.10;0.10;;;;;;;15.69;71.47;97726.94;8414932;28;20434;-72
2022/11/09 15:44:13;;;;;;;0.00;0.00;;;;;;;15.67;71.27;97726.22;8414251;28;20223;-75
2022/11/09 15:48:16;;;;;;;0.00;0.00;;;;;;;15.69;70.82;97726.94;8414055;28;20276;-72
2022/11/09 15:52:21;;;;;;;0.03;0.03;;;;;;;15.70;71.26;97733.81;8414369;28;20507;-72
2022/11/09 15:56:24;;;;;;;0.10;0.10;;;;;;;15.65;71.02;97733.31;8414092;28;20417;-72
2022/11/09 16:00:27;;;;;;;0.00;0.00;;;;;;;15.67;71.41;97733.19;8414387;28;20231;-72
2022/11/09 16:04:30;;;;;;;0.00;0.00;;;;;;;15.68;71.16;97737.50;8414035;28;20235;-72
2022/11/09 16:08:34;;;;;;;0.00;0.00;;;;;;;15.67;71.53;97744.50;8414269;28;20237;-73
2022/11/09 16:12:37;;;;;;;0.00;0.00;;;;;;;15.65;71.35;97743.78;8413970;28;20231;-73
2022/11/09 16:16:47;;;;;;;0.00;0.00;;;;;;;15.63;71.33;97750.84;8413783;28;20414;-72
2022/11/09 16:20:50;;;;;;;0.00;0.00;;;;;;;15.55;72.12;97755.75;8413587;28;20231;-72
2022/11/09 16:24:54;;;;;;;0.00;0.00;;;;;;;15.57;71.88;97761.72;8413333;28;20253;-74
2022/11/09 16:28:57;;;;;;;0.00;0.00;;;;;;;15.55;71.78;97761.81;8413825;28;20230;-76
2022/11/09 16:33:00;;;;;;;0.00;0.00;;;;;;;15.53;71.63;97762.84;8413886;28;20527;-73
2022/11/09 16:37:03;;;;;;;0.00;0.00;;;;;;;15.49;71.67;97764.00;8413771;28;20235;-73
2022/11/09 16:41:07;;;;;;;0.00;0.00;;;;;;;15.51;71.44;97772.56;8413498;28;20257;-72
2022/11/09 16:45:13;;;;;;;0.00;0.00;;;;;;;15.50;71.90;97774.34;8413168;28;20411;-73
2022/11/09 16:49:16;;;;;;;0.00;0.00;;;;;;;15.48;71.58;97775.38;8413496;28;20230;-73
2022/11/09 16:53:19;;;;;;;0.00;0.00;;;;;;;15.46;71.86;97770.28;8413438;28;20234;-73
2022/11/09 16:57:30;;;;;;;0.00;0.00;;;;;;;15.45;71.72;97784.25;8413623;28;20250;-72
2022/11/09 17:01:33;;;;;;;0.03;0.03;;;;;;;15.41;72.20;97782.78;8413725;28;20252;-72
2022/11/09 17:05:36;;;;;;;0.10;0.10;;;;;;;15.49;71.53;97783.09;8413507;28;20234;-73
2022/11/09 17:09:39;;;;;;;0.00;0.00;;;;;;;15.47;71.55;97790.19;8412415;28;20231;-71
2022/11/09 17:13:43;;;;;;;0.00;0.00;;;;;;;15.36;72.58;97788.28;8412831;28;20234;-72
2022/11/09 17:17:46;;;;;;;0.00;0.00;;;;;;;15.42;72.26;97795.75;8412908;28;20235;-71
2022/11/09 17:21:49;;;;;;;0.00;0.00;;;;;;;15.31;73.03;97803.44;8412958;28;20545;-71
2022/11/09 17:25:55;;;;;;;0.00;0.00;;;;;;;15.37;72.11;97799.59;8412449;28;20386;-70
2022/11/09 17:29:59;;;;;;;0.00;0.00;;;;;;;15.28;74.02;97803.63;8411881;28;20226;-70
2022/11/09 17:34:02;;;;;;;0.00;0.00;;;;;;;15.38;73.04;97803.84;8412909;28;20237;-72
2022/11/09 17:38:05;;;;;;;0.00;0.00;;;;;;;15.36;72.42;97808.34;8413029;28;20330;-71
2022/11/09 17:42:08;;;;;;;0.10;0.10;;;;;;;15.38;72.48;97822.97;8412088;28;20242;-71
2022/11/09 17:46:14;;;;;;;0.00;0.00;;;;;;;15.37;72.92;97826.50;8412031;28;20238;-71
2022/11/09 17:50:20;;;;;;;0.00;0.00;;;;;;;15.36;72.71;97826.59;8412460;28;20234;-71
2022/11/09 17:54:22;;;;;;;0.03;0.03;;;;;;;15.37;72.22;97826.50;8412404;28;20249;-71
2022/11/09 17:58:25;;;;;;;0.07;0.07;;;;;;;15.29;72.81;97831.41;8412475;28;20227;-72
2022/11/09 18:02:30;;;;;;;0.00;0.00;;;;;;;15.26;72.62;97839.44;8412399;28;20223;-71
2022/11/09 18:06:32;;;;;;;0.00;0.00;;;;;;;15.35;72.24;97851.03;8412018;28;20246;-74
2022/11/09 18:10:36;;;;;;;0.00;0.00;;;;;;;15.34;72.44;97854.56;8412222;28;20230;-73
2022/11/09 18:14:39;;;;;;;0.07;0.07;;;;;;;15.34;72.61;97863.22;8412488;28;20408;-75
2022/11/09 18:18:43;;;;;;;0.07;0.07;;;;;;;15.31;72.38;97870.44;8413427;28;20235;-73
2022/11/09 18:22:46;;;;;;;0.00;0.00;;;;;;;15.33;72.23;97873.78;8418300;28;20239;-77
2022/11/09 18:26:49;;;;;;;0.00;0.00;;;;;;;15.34;72.05;97878.88;8417771;28;20522;-73
2022/11/09 18:30:51;;;;;;;0.00;0.00;;;;;;;15.28;72.32;97883.69;8417957;28;20526;-75
2022/11/09 18:34:56;;;;;;;0.00;0.00;;;;;;;15.27;72.28;97877.63;8417703;28;20238;-76
2022/11/09 18:39:01;;;;;;;0.00;0.00;;;;;;;15.30;72.05;97884.41;8417427;28;20238;-75
2022/11/09 18:43:04;;;;;;;0.00;0.00;;;;;;;15.31;72.00;97884.31;8417032;28;20231;-73
2022/11/09 18:47:08;;;;;;;0.00;0.00;;;;;;;15.75;79.22;97887.59;8416629;28;20235;-76
2022/11/09 18:51:12;;;;;;;0.00;0.00;;;;;;;16.36;77.94;97896.47;8416703;28;20226;-75
2022/11/09 18:55:15;;;;;;;0.00;0.00;;;;;;;16.58;74.65;97900.19;8416852;28;20293;-75
2022/11/09 18:59:18;;;;;;;0.00;0.00;;;;;;;16.95;71.83;97908.94;8416580;28;20237;-76
2022/11/09 19:03:21;;;;;;;0.00;0.00;;;;;;;17.17;69.86;97908.25;8416583;28;20227;-75
2022/11/09 19:07:25;;;;;;;0.00;0.00;;;;;;;17.27;68.66;97907.56;8416205;28;20303;-74
2022/11/09 19:11:29;;;;;;;0.00;0.00;;;;;;;16.42;67.67;97897.84;8416276;28;20235;-75
2022/11/09 19:15:33;;;;;;;0.00;0.00;;;;;;;16.15;68.71;97901.41;8415894;28;20242;-73
2022/11/09 19:19:36;;;;;;;0.00;0.00;;;;;;;15.92;68.46;97897.75;8416179;28;20246;-76